sensor_id;sensor_type;location;lat;lon;timestamp;P1;durP1;ratioP1;P2;durP2;ratioP2
18720;SDS011;9489;50.948;3.114;2023-09-12T00:01:00;30.50;;;27.42;;
18720;SDS011;9489;50.948;3.114;2023-09-12T00:03:32;27.70;;;24.85;;
18720;SDS011;9489;50.948;3.114;2023-09-12T00:05:59;26.92;;;24.33;;
18720;SDS011;9489;50.948;3.114;2023-09-12T00:08:26;31.17;;;27.88;;
18720;SDS011;9489;50.948;3.114;2023-09-12T00:11:02;30.08;;;26.98;;
18720;SDS011;9489;50.948;3.114;2023-09-12T00:13:28;32.45;;;28.05;;
18720;SDS011;9489;50.948;3.114;2023-09-12T00:15:55;28.95;;;25.58;;
18720;SDS011;9489;50.948;3.114;2023-09-12T00:18:20;30.52;;;27.38;;
18720;SDS011;9489;50.948;3.114;2023-09-12T00:20:46;31.52;;;28.35;;
18720;SDS011;9489;50.948;3.114;2023-09-12T00:23:12;29.80;;;26.70;;
18720;SDS011;9489;50.948;3.114;2023-09-12T00:25:38;29.67;;;26.70;;
18720;SDS011;9489;50.948;3.114;2023-09-12T00:28:03;28.98;;;26.17;;
18720;SDS011;9489;50.948;3.114;2023-09-12T00:30:29;29.48;;;26.38;;
18720;SDS011;9489;50.948;3.114;2023-09-12T00:32:55;30.95;;;27.40;;
18720;SDS011;9489;50.948;3.114;2023-09-12T00:35:20;32.05;;;28.85;;
18720;SDS011;9489;50.948;3.114;2023-09-12T00:37:46;30.38;;;27.27;;
18720;SDS011;9489;50.948;3.114;2023-09-12T00:40:12;32.50;;;29.13;;
18720;SDS011;9489;50.948;3.114;2023-09-12T00:42:37;31.70;;;28.38;;
18720;SDS011;9489;50.948;3.114;2023-09-12T00:45:03;29.90;;;25.25;;
18720;SDS011;9489;50.948;3.114;2023-09-12T00:47:29;31.13;;;27.48;;
18720;SDS011;9489;50.948;3.114;2023-09-12T00:49:56;33.38;;;29.75;;
18720;SDS011;9489;50.948;3.114;2023-09-12T00:52:25;30.63;;;27.38;;
18720;SDS011;9489;50.948;3.114;2023-09-12T00:54:51;29.65;;;26.65;;
18720;SDS011;9489;50.948;3.114;2023-09-12T00:57:18;31.02;;;27.88;;
18720;SDS011;9489;50.948;3.114;2023-09-12T00:59:45;32.28;;;28.83;;
18720;SDS011;9489;50.948;3.114;2023-09-12T01:02:12;29.70;;;26.63;;
18720;SDS011;9489;50.948;3.114;2023-09-12T01:04:37;28.73;;;25.92;;
18720;SDS011;9489;50.948;3.114;2023-09-12T01:07:03;30.23;;;27.20;;
18720;SDS011;9489;50.948;3.114;2023-09-12T01:09:30;29.58;;;26.73;;
18720;SDS011;9489;50.948;3.114;2023-09-12T01:11:56;30.90;;;27.60;;
18720;SDS011;9489;50.948;3.114;2023-09-12T01:14:22;28.35;;;25.50;;
18720;SDS011;9489;50.948;3.114;2023-09-12T01:16:48;29.55;;;26.77;;
18720;SDS011;9489;50.948;3.114;2023-09-12T01:19:14;30.23;;;27.23;;
18720;SDS011;9489;50.948;3.114;2023-09-12T01:27:47;31.52;;;28.17;;
18720;SDS011;9489;50.948;3.114;2023-09-12T01:30:22;31.30;;;26.95;;
18720;SDS011;9489;50.948;3.114;2023-09-12T01:32:49;29.02;;;25.58;;
18720;SDS011;9489;50.948;3.114;2023-09-12T01:35:15;29.65;;;26.65;;
18720;SDS011;9489;50.948;3.114;2023-09-12T01:37:41;29.52;;;26.48;;
18720;SDS011;9489;50.948;3.114;2023-09-12T01:40:07;29.63;;;26.60;;
18720;SDS011;9489;50.948;3.114;2023-09-12T01:42:45;31.52;;;28.13;;
18720;SDS011;9489;50.948;3.114;2023-09-12T01:45:15;28.95;;;25.90;;
18720;SDS011;9489;50.948;3.114;2023-09-12T01:47:42;32.22;;;29.10;;
18720;SDS011;9489;50.948;3.114;2023-09-12T01:50:10;28.85;;;25.83;;
18720;SDS011;9489;50.948;3.114;2023-09-12T01:52:38;29.38;;;26.40;;
18720;SDS011;9489;50.948;3.114;2023-09-12T01:55:05;31.45;;;28.05;;
18720;SDS011;9489;50.948;3.114;2023-09-12T01:57:34;28.55;;;25.60;;
18720;SDS011;9489;50.948;3.114;2023-09-12T02:00:01;28.38;;;25.35;;
18720;SDS011;9489;50.948;3.114;2023-09-12T02:02:26;27.88;;;25.15;;
18720;SDS011;9489;50.948;3.114;2023-09-12T02:07:38;28.23;;;25.27;;
18720;SDS011;9489;50.948;3.114;2023-09-12T02:10:07;29.23;;;25.50;;
18720;SDS011;9489;50.948;3.114;2023-09-12T02:12:34;29.13;;;26.08;;
18720;SDS011;9489;50.948;3.114;2023-09-12T02:15:00;28.52;;;25.85;;
18720;SDS011;9489;50.948;3.114;2023-09-12T02:17:27;27.63;;;24.73;;
18720;SDS011;9489;50.948;3.114;2023-09-12T02:19:53;29.27;;;26.40;;
18720;SDS011;9489;50.948;3.114;2023-09-12T02:22:19;28.48;;;25.77;;
18720;SDS011;9489;50.948;3.114;2023-09-12T02:24:44;28.17;;;25.35;;
18720;SDS011;9489;50.948;3.114;2023-09-12T02:27:10;29.58;;;26.50;;
18720;SDS011;9489;50.948;3.114;2023-09-12T02:29:37;29.33;;;26.35;;
18720;SDS011;9489;50.948;3.114;2023-09-12T02:32:04;30.55;;;27.33;;
18720;SDS011;9489;50.948;3.114;2023-09-12T02:34:29;28.08;;;24.85;;
18720;SDS011;9489;50.948;3.114;2023-09-12T02:36:55;33.08;;;27.60;;
18720;SDS011;9489;50.948;3.114;2023-09-12T02:39:21;29.38;;;26.45;;
18720;SDS011;9489;50.948;3.114;2023-09-12T02:41:46;28.67;;;25.73;;
18720;SDS011;9489;50.948;3.114;2023-09-12T02:44:12;26.20;;;23.60;;
18720;SDS011;9489;50.948;3.114;2023-09-12T02:46:37;26.52;;;23.70;;
18720;SDS011;9489;50.948;3.114;2023-09-12T02:49:03;28.27;;;25.40;;
18720;SDS011;9489;50.948;3.114;2023-09-12T02:51:29;27.05;;;24.35;;
18720;SDS011;9489;50.948;3.114;2023-09-12T02:53:54;26.95;;;24.20;;
18720;SDS011;9489;50.948;3.114;2023-09-12T02:56:20;30.60;;;26.77;;
18720;SDS011;9489;50.948;3.114;2023-09-12T02:58:46;26.55;;;23.85;;
18720;SDS011;9489;50.948;3.114;2023-09-12T03:01:15;27.27;;;24.55;;
18720;SDS011;9489;50.948;3.114;2023-09-12T03:03:42;29.73;;;25.35;;
18720;SDS011;9489;50.948;3.114;2023-09-12T03:06:09;26.95;;;24.42;;
18720;SDS011;9489;50.948;3.114;2023-09-12T03:08:34;25.80;;;23.08;;
18720;SDS011;9489;50.948;3.114;2023-09-12T03:11:00;26.80;;;24.30;;
18720;SDS011;9489;50.948;3.114;2023-09-12T03:13:28;26.58;;;23.63;;
18720;SDS011;9489;50.948;3.114;2023-09-12T03:15:53;26.63;;;23.92;;
18720;SDS011;9489;50.948;3.114;2023-09-12T03:18:19;27.63;;;24.83;;
18720;SDS011;9489;50.948;3.114;2023-09-12T03:20:45;29.02;;;26.00;;
18720;SDS011;9489;50.948;3.114;2023-09-12T03:23:10;28.35;;;25.45;;
18720;SDS011;9489;50.948;3.114;2023-09-12T03:25:36;26.67;;;23.98;;
18720;SDS011;9489;50.948;3.114;2023-09-12T03:28:03;28.45;;;25.23;;
18720;SDS011;9489;50.948;3.114;2023-09-12T03:30:30;26.42;;;23.73;;
18720;SDS011;9489;50.948;3.114;2023-09-12T03:32:58;27.65;;;24.80;;
18720;SDS011;9489;50.948;3.114;2023-09-12T03:35:23;28.70;;;25.63;;
18720;SDS011;9489;50.948;3.114;2023-09-12T03:37:49;26.52;;;23.65;;
18720;SDS011;9489;50.948;3.114;2023-09-12T03:40:15;27.25;;;24.52;;
18720;SDS011;9489;50.948;3.114;2023-09-12T03:42:40;28.38;;;25.58;;
18720;SDS011;9489;50.948;3.114;2023-09-12T03:45:06;26.10;;;23.23;;
18720;SDS011;9489;50.948;3.114;2023-09-12T03:47:32;29.85;;;26.75;;
18720;SDS011;9489;50.948;3.114;2023-09-12T03:49:58;27.40;;;24.55;;
18720;SDS011;9489;50.948;3.114;2023-09-12T03:52:24;26.08;;;23.48;;
18720;SDS011;9489;50.948;3.114;2023-09-12T03:54:49;24.95;;;22.30;;
18720;SDS011;9489;50.948;3.114;2023-09-12T03:57:15;30.58;;;27.30;;
18720;SDS011;9489;50.948;3.114;2023-09-12T03:59:41;31.75;;;28.40;;
18720;SDS011;9489;50.948;3.114;2023-09-12T04:02:07;29.05;;;25.90;;
18720;SDS011;9489;50.948;3.114;2023-09-12T04:04:33;30.80;;;26.65;;
18720;SDS011;9489;50.948;3.114;2023-09-12T04:06:59;30.25;;;27.15;;
18720;SDS011;9489;50.948;3.114;2023-09-12T04:09:25;33.97;;;29.65;;
18720;SDS011;9489;50.948;3.114;2023-09-12T04:11:50;27.58;;;24.67;;
18720;SDS011;9489;50.948;3.114;2023-09-12T04:14:16;30.15;;;26.90;;
18720;SDS011;9489;50.948;3.114;2023-09-12T04:16:41;28.90;;;25.80;;
18720;SDS011;9489;50.948;3.114;2023-09-12T04:19:07;29.02;;;25.92;;
18720;SDS011;9489;50.948;3.114;2023-09-12T04:21:33;28.92;;;25.98;;
18720;SDS011;9489;50.948;3.114;2023-09-12T04:23:58;32.03;;;27.17;;
18720;SDS011;9489;50.948;3.114;2023-09-12T04:26:24;29.90;;;26.70;;
18720;SDS011;9489;50.948;3.114;2023-09-12T04:28:50;30.48;;;27.05;;
18720;SDS011;9489;50.948;3.114;2023-09-12T04:31:17;29.98;;;26.67;;
18720;SDS011;9489;50.948;3.114;2023-09-12T04:33:44;29.73;;;26.52;;
18720;SDS011;9489;50.948;3.114;2023-09-12T04:36:09;29.60;;;26.42;;
18720;SDS011;9489;50.948;3.114;2023-09-12T04:38:35;29.83;;;26.67;;
18720;SDS011;9489;50.948;3.114;2023-09-12T04:41:02;34.28;;;29.40;;
18720;SDS011;9489;50.948;3.114;2023-09-12T04:43:30;31.05;;;27.85;;
18720;SDS011;9489;50.948;3.114;2023-09-12T04:45:56;30.15;;;26.85;;
18720;SDS011;9489;50.948;3.114;2023-09-12T04:48:22;29.58;;;26.38;;
18720;SDS011;9489;50.948;3.114;2023-09-12T04:50:48;30.20;;;27.00;;
18720;SDS011;9489;50.948;3.114;2023-09-12T04:53:14;29.88;;;26.70;;
18720;SDS011;9489;50.948;3.114;2023-09-12T04:55:39;31.13;;;27.83;;
18720;SDS011;9489;50.948;3.114;2023-09-12T04:58:05;30.15;;;26.85;;
18720;SDS011;9489;50.948;3.114;2023-09-12T05:00:31;32.83;;;28.90;;
18720;SDS011;9489;50.948;3.114;2023-09-12T05:02:57;28.92;;;25.95;;
18720;SDS011;9489;50.948;3.114;2023-09-12T05:05:23;30.67;;;27.48;;
18720;SDS011;9489;50.948;3.114;2023-09-12T05:07:49;29.25;;;26.08;;
18720;SDS011;9489;50.948;3.114;2023-09-12T05:10:16;30.23;;;26.98;;
18720;SDS011;9489;50.948;3.114;2023-09-12T05:12:43;36.28;;;27.42;;
18720;SDS011;9489;50.948;3.114;2023-09-12T05:15:08;32.80;;;29.02;;
18720;SDS011;9489;50.948;3.114;2023-09-12T05:17:34;31.63;;;27.30;;
18720;SDS011;9489;50.948;3.114;2023-09-12T05:20:00;34.17;;;29.60;;
18720;SDS011;9489;50.948;3.114;2023-09-12T05:22:26;33.92;;;26.83;;
18720;SDS011;9489;50.948;3.114;2023-09-12T05:24:53;34.78;;;30.17;;
18720;SDS011;9489;50.948;3.114;2023-09-12T05:27:18;35.08;;;30.73;;
18720;SDS011;9489;50.948;3.114;2023-09-12T05:29:44;35.65;;;28.92;;
18720;SDS011;9489;50.948;3.114;2023-09-12T05:32:09;34.38;;;29.88;;
18720;SDS011;9489;50.948;3.114;2023-09-12T05:34:35;31.65;;;27.55;;
18720;SDS011;9489;50.948;3.114;2023-09-12T05:37:00;35.50;;;30.95;;
18720;SDS011;9489;50.948;3.114;2023-09-12T05:39:26;32.75;;;29.30;;
18720;SDS011;9489;50.948;3.114;2023-09-12T05:41:52;40.22;;;30.20;;
18720;SDS011;9489;50.948;3.114;2023-09-12T05:44:18;34.13;;;28.88;;
18720;SDS011;9489;50.948;3.114;2023-09-12T05:46:47;33.72;;;29.15;;
18720;SDS011;9489;50.948;3.114;2023-09-12T05:49:13;32.80;;;28.35;;
18720;SDS011;9489;50.948;3.114;2023-09-12T05:51:40;32.47;;;28.98;;
18720;SDS011;9489;50.948;3.114;2023-09-12T05:54:06;29.73;;;26.60;;
18720;SDS011;9489;50.948;3.114;2023-09-12T05:56:33;29.70;;;26.55;;
18720;SDS011;9489;50.948;3.114;2023-09-12T05:58:59;27.30;;;24.42;;
18720;SDS011;9489;50.948;3.114;2023-09-12T06:01:25;26.83;;;24.20;;
18720;SDS011;9489;50.948;3.114;2023-09-12T06:03:50;26.55;;;23.95;;
18720;SDS011;9489;50.948;3.114;2023-09-12T06:06:16;25.33;;;22.88;;
18720;SDS011;9489;50.948;3.114;2023-09-12T06:08:42;26.20;;;23.75;;
18720;SDS011;9489;50.948;3.114;2023-09-12T06:11:07;26.60;;;23.90;;
18720;SDS011;9489;50.948;3.114;2023-09-12T06:13:33;26.20;;;23.65;;
18720;SDS011;9489;50.948;3.114;2023-09-12T06:16:02;24.92;;;22.48;;
18720;SDS011;9489;50.948;3.114;2023-09-12T06:18:28;25.08;;;22.65;;
18720;SDS011;9489;50.948;3.114;2023-09-12T06:20:56;27.55;;;24.88;;
18720;SDS011;9489;50.948;3.114;2023-09-12T06:23:22;26.05;;;23.80;;
18720;SDS011;9489;50.948;3.114;2023-09-12T06:25:48;25.98;;;23.40;;
18720;SDS011;9489;50.948;3.114;2023-09-12T06:28:24;25.67;;;23.13;;
18720;SDS011;9489;50.948;3.114;2023-09-12T06:30:53;22.40;;;20.30;;
18720;SDS011;9489;50.948;3.114;2023-09-12T06:33:19;25.42;;;23.02;;
18720;SDS011;9489;50.948;3.114;2023-09-12T06:35:54;23.10;;;20.88;;
18720;SDS011;9489;50.948;3.114;2023-09-12T06:38:20;25.52;;;23.10;;
18720;SDS011;9489;50.948;3.114;2023-09-12T06:40:47;27.00;;;23.73;;
18720;SDS011;9489;50.948;3.114;2023-09-12T06:43:13;26.05;;;23.48;;
18720;SDS011;9489;50.948;3.114;2023-09-12T06:45:42;24.10;;;21.90;;
18720;SDS011;9489;50.948;3.114;2023-09-12T06:48:08;23.80;;;21.50;;
18720;SDS011;9489;50.948;3.114;2023-09-12T06:50:34;25.52;;;23.23;;
18720;SDS011;9489;50.948;3.114;2023-09-12T06:53:02;22.88;;;20.65;;
18720;SDS011;9489;50.948;3.114;2023-09-12T06:55:28;25.50;;;22.88;;
18720;SDS011;9489;50.948;3.114;2023-09-12T06:57:54;24.58;;;22.05;;
18720;SDS011;9489;50.948;3.114;2023-09-12T07:00:20;22.83;;;20.55;;
18720;SDS011;9489;50.948;3.114;2023-09-12T07:02:45;23.92;;;21.52;;
18720;SDS011;9489;50.948;3.114;2023-09-12T07:05:11;23.77;;;21.27;;
18720;SDS011;9489;50.948;3.114;2023-09-12T07:07:36;24.10;;;21.60;;
18720;SDS011;9489;50.948;3.114;2023-09-12T07:10:02;22.13;;;20.02;;
18720;SDS011;9489;50.948;3.114;2023-09-12T07:12:28;23.05;;;20.95;;
18720;SDS011;9489;50.948;3.114;2023-09-12T07:14:54;23.05;;;21.05;;
18720;SDS011;9489;50.948;3.114;2023-09-12T07:17:21;22.63;;;20.52;;
18720;SDS011;9489;50.948;3.114;2023-09-12T07:19:46;22.52;;;20.45;;
18720;SDS011;9489;50.948;3.114;2023-09-12T07:22:12;22.63;;;20.52;;
18720;SDS011;9489;50.948;3.114;2023-09-12T07:24:38;23.30;;;21.00;;
18720;SDS011;9489;50.948;3.114;2023-09-12T07:27:03;23.20;;;21.00;;
18720;SDS011;9489;50.948;3.114;2023-09-12T07:29:29;25.98;;;23.20;;
18720;SDS011;9489;50.948;3.114;2023-09-12T07:31:55;24.88;;;22.42;;
18720;SDS011;9489;50.948;3.114;2023-09-12T07:34:21;22.88;;;20.88;;
18720;SDS011;9489;50.948;3.114;2023-09-12T07:36:49;24.90;;;22.40;;
18720;SDS011;9489;50.948;3.114;2023-09-12T07:39:16;25.70;;;23.35;;
18720;SDS011;9489;50.948;3.114;2023-09-12T07:41:42;24.15;;;21.63;;
18720;SDS011;9489;50.948;3.114;2023-09-12T07:44:07;25.48;;;23.00;;
18720;SDS011;9489;50.948;3.114;2023-09-12T07:46:36;24.95;;;22.60;;
18720;SDS011;9489;50.948;3.114;2023-09-12T07:49:04;25.60;;;23.10;;
18720;SDS011;9489;50.948;3.114;2023-09-12T07:51:30;26.40;;;23.88;;
18720;SDS011;9489;50.948;3.114;2023-09-12T07:53:55;27.30;;;24.73;;
18720;SDS011;9489;50.948;3.114;2023-09-12T07:56:21;26.08;;;23.58;;
18720;SDS011;9489;50.948;3.114;2023-09-12T07:58:48;27.20;;;24.65;;
18720;SDS011;9489;50.948;3.114;2023-09-12T08:01:14;25.65;;;23.23;;
18720;SDS011;9489;50.948;3.114;2023-09-12T08:03:41;27.90;;;25.40;;
18720;SDS011;9489;50.948;3.114;2023-09-12T08:06:07;26.83;;;24.20;;
18720;SDS011;9489;50.948;3.114;2023-09-12T08:08:33;28.95;;;26.17;;
18720;SDS011;9489;50.948;3.114;2023-09-12T08:10:59;27.02;;;23.75;;
18720;SDS011;9489;50.948;3.114;2023-09-12T08:13:28;27.42;;;24.52;;
18720;SDS011;9489;50.948;3.114;2023-09-12T08:15:55;30.98;;;27.67;;
18720;SDS011;9489;50.948;3.114;2023-09-12T08:18:21;29.95;;;27.05;;
18720;SDS011;9489;50.948;3.114;2023-09-12T08:20:50;27.52;;;24.60;;
18720;SDS011;9489;50.948;3.114;2023-09-12T08:23:16;27.45;;;24.65;;
18720;SDS011;9489;50.948;3.114;2023-09-12T08:25:42;32.92;;;27.77;;
18720;SDS011;9489;50.948;3.114;2023-09-12T08:28:07;32.00;;;28.90;;
18720;SDS011;9489;50.948;3.114;2023-09-12T08:30:33;30.40;;;27.40;;
18720;SDS011;9489;50.948;3.114;2023-09-12T08:32:58;29.90;;;26.70;;
18720;SDS011;9489;50.948;3.114;2023-09-12T08:35:24;31.13;;;27.95;;
18720;SDS011;9489;50.948;3.114;2023-09-12T08:37:51;32.50;;;27.83;;
18720;SDS011;9489;50.948;3.114;2023-09-12T08:40:17;30.58;;;27.40;;
18720;SDS011;9489;50.948;3.114;2023-09-12T08:42:43;31.98;;;28.20;;
18720;SDS011;9489;50.948;3.114;2023-09-12T08:45:13;31.42;;;28.05;;
18720;SDS011;9489;50.948;3.114;2023-09-12T08:47:41;26.33;;;23.00;;
18720;SDS011;9489;50.948;3.114;2023-09-12T08:50:11;34.25;;;27.92;;
18720;SDS011;9489;50.948;3.114;2023-09-12T08:52:41;26.83;;;24.25;;
18720;SDS011;9489;50.948;3.114;2023-09-12T08:55:08;31.60;;;28.30;;
18720;SDS011;9489;50.948;3.114;2023-09-12T08:57:35;33.10;;;29.70;;
18720;SDS011;9489;50.948;3.114;2023-09-12T09:00:03;34.47;;;31.08;;
18720;SDS011;9489;50.948;3.114;2023-09-12T09:02:32;33.85;;;30.55;;
18720;SDS011;9489;50.948;3.114;2023-09-12T09:04:59;32.15;;;28.85;;
18720;SDS011;9489;50.948;3.114;2023-09-12T09:07:29;35.45;;;31.80;;
18720;SDS011;9489;50.948;3.114;2023-09-12T09:10:03;31.92;;;28.52;;
18720;SDS011;9489;50.948;3.114;2023-09-12T09:12:33;32.85;;;29.50;;
18720;SDS011;9489;50.948;3.114;2023-09-12T09:15:42;35.47;;;32.10;;
18720;SDS011;9489;50.948;3.114;2023-09-12T09:17:52;33.15;;;29.95;;
18720;SDS011;9489;50.948;3.114;2023-09-12T09:20:26;32.90;;;29.92;;
18720;SDS011;9489;50.948;3.114;2023-09-12T09:22:57;34.63;;;31.25;;
18720;SDS011;9489;50.948;3.114;2023-09-12T09:25:24;37.80;;;34.00;;
18720;SDS011;9489;50.948;3.114;2023-09-12T09:27:50;36.72;;;33.47;;
18720;SDS011;9489;50.948;3.114;2023-09-12T09:30:15;38.80;;;35.22;;
18720;SDS011;9489;50.948;3.114;2023-09-12T09:32:43;37.08;;;33.47;;
18720;SDS011;9489;50.948;3.114;2023-09-12T09:35:10;39.78;;;35.67;;
18720;SDS011;9489;50.948;3.114;2023-09-12T09:37:36;40.50;;;36.50;;
18720;SDS011;9489;50.948;3.114;2023-09-12T09:40:04;42.95;;;38.55;;
18720;SDS011;9489;50.948;3.114;2023-09-12T09:42:31;39.47;;;35.70;;
18720;SDS011;9489;50.948;3.114;2023-09-12T09:44:57;41.65;;;37.75;;
18720;SDS011;9489;50.948;3.114;2023-09-12T09:47:23;43.88;;;39.65;;
18720;SDS011;9489;50.948;3.114;2023-09-12T09:49:48;40.33;;;36.38;;
18720;SDS011;9489;50.948;3.114;2023-09-12T09:52:16;41.08;;;37.10;;
18720;SDS011;9489;50.948;3.114;2023-09-12T09:54:50;44.10;;;39.72;;
18720;SDS011;9489;50.948;3.114;2023-09-12T09:57:16;44.03;;;39.65;;
18720;SDS011;9489;50.948;3.114;2023-09-12T09:59:42;46.10;;;41.50;;
18720;SDS011;9489;50.948;3.114;2023-09-12T10:02:14;45.55;;;40.85;;
18720;SDS011;9489;50.948;3.114;2023-09-12T10:04:44;43.08;;;38.83;;
18720;SDS011;9489;50.948;3.114;2023-09-12T10:07:10;44.72;;;40.42;;
18720;SDS011;9489;50.948;3.114;2023-09-12T10:09:36;45.75;;;41.30;;
18720;SDS011;9489;50.948;3.114;2023-09-12T10:12:02;44.78;;;40.25;;
18720;SDS011;9489;50.948;3.114;2023-09-12T10:14:28;39.38;;;35.80;;
18720;SDS011;9489;50.948;3.114;2023-09-12T10:17:00;39.00;;;35.50;;
18720;SDS011;9489;50.948;3.114;2023-09-12T10:19:32;35.13;;;31.90;;
18720;SDS011;9489;50.948;3.114;2023-09-12T10:24:46;39.80;;;36.13;;
18720;SDS011;9489;50.948;3.114;2023-09-12T10:27:14;36.33;;;33.05;;
18720;SDS011;9489;50.948;3.114;2023-09-12T10:29:40;39.55;;;35.83;;
18720;SDS011;9489;50.948;3.114;2023-09-12T10:32:06;38.90;;;35.28;;
18720;SDS011;9489;50.948;3.114;2023-09-12T10:34:32;38.33;;;34.75;;
18720;SDS011;9489;50.948;3.114;2023-09-12T10:37:01;37.10;;;33.67;;
18720;SDS011;9489;50.948;3.114;2023-09-12T10:39:30;36.15;;;32.88;;
18720;SDS011;9489;50.948;3.114;2023-09-12T10:41:57;34.85;;;31.75;;
18720;SDS011;9489;50.948;3.114;2023-09-12T10:44:24;35.13;;;32.03;;
18720;SDS011;9489;50.948;3.114;2023-09-12T10:46:50;37.95;;;34.40;;
18720;SDS011;9489;50.948;3.114;2023-09-12T10:49:17;39.03;;;35.22;;
18720;SDS011;9489;50.948;3.114;2023-09-12T10:51:44;41.80;;;37.97;;
18720;SDS011;9489;50.948;3.114;2023-09-12T10:54:14;42.10;;;38.30;;
18720;SDS011;9489;50.948;3.114;2023-09-12T10:56:47;43.75;;;39.63;;
18720;SDS011;9489;50.948;3.114;2023-09-12T10:59:28;41.78;;;37.88;;
18720;SDS011;9489;50.948;3.114;2023-09-12T11:01:57;48.80;;;44.10;;
18720;SDS011;9489;50.948;3.114;2023-09-12T11:04:57;48.38;;;43.72;;
18720;SDS011;9489;50.948;3.114;2023-09-12T11:07:43;49.50;;;44.88;;
18720;SDS011;9489;50.948;3.114;2023-09-12T11:12:43;51.55;;;46.45;;
18720;SDS011;9489;50.948;3.114;2023-09-12T11:15:10;51.65;;;46.55;;
18720;SDS011;9489;50.948;3.114;2023-09-12T11:17:40;53.30;;;48.13;;
18720;SDS011;9489;50.948;3.114;2023-09-12T11:20:07;51.58;;;46.70;;
18720;SDS011;9489;50.948;3.114;2023-09-12T11:22:36;50.63;;;45.83;;
18720;SDS011;9489;50.948;3.114;2023-09-12T11:25:15;47.65;;;43.08;;
18720;SDS011;9489;50.948;3.114;2023-09-12T11:27:45;43.67;;;39.60;;
18720;SDS011;9489;50.948;3.114;2023-09-12T11:30:18;47.00;;;42.70;;
18720;SDS011;9489;50.948;3.114;2023-09-12T11:32:51;44.75;;;40.65;;
18720;SDS011;9489;50.948;3.114;2023-09-12T11:35:22;45.53;;;41.33;;
18720;SDS011;9489;50.948;3.114;2023-09-12T11:37:49;44.85;;;40.75;;
18720;SDS011;9489;50.948;3.114;2023-09-12T11:43:17;44.35;;;40.55;;
18720;SDS011;9489;50.948;3.114;2023-09-12T11:45:46;42.60;;;38.95;;
18720;SDS011;9489;50.948;3.114;2023-09-12T11:48:12;38.90;;;35.60;;
18720;SDS011;9489;50.948;3.114;2023-09-12T11:50:37;39.67;;;36.45;;
18720;SDS011;9489;50.948;3.114;2023-09-12T11:53:06;40.22;;;37.22;;
18720;SDS011;9489;50.948;3.114;2023-09-12T11:55:42;36.22;;;33.47;;
18720;SDS011;9489;50.948;3.114;2023-09-12T11:58:12;40.15;;;37.05;;
18720;SDS011;9489;50.948;3.114;2023-09-12T12:00:46;40.17;;;37.20;;
18720;SDS011;9489;50.948;3.114;2023-09-12T12:03:14;39.03;;;36.00;;
18720;SDS011;9489;50.948;3.114;2023-09-12T12:05:40;40.58;;;37.58;;
18720;SDS011;9489;50.948;3.114;2023-09-12T12:08:07;35.03;;;32.63;;
18720;SDS011;9489;50.948;3.114;2023-09-12T12:10:34;34.97;;;32.50;;
18720;SDS011;9489;50.948;3.114;2023-09-12T12:13:00;35.83;;;33.20;;
18720;SDS011;9489;50.948;3.114;2023-09-12T12:15:27;34.80;;;32.53;;
18720;SDS011;9489;50.948;3.114;2023-09-12T12:17:56;32.80;;;30.45;;
18720;SDS011;9489;50.948;3.114;2023-09-12T12:20:22;33.90;;;31.70;;
18720;SDS011;9489;50.948;3.114;2023-09-12T12:22:48;32.85;;;30.55;;
18720;SDS011;9489;50.948;3.114;2023-09-12T12:25:17;38.67;;;35.95;;
18720;SDS011;9489;50.948;3.114;2023-09-12T12:27:43;28.95;;;26.98;;
18720;SDS011;9489;50.948;3.114;2023-09-12T12:30:10;26.13;;;24.35;;
18720;SDS011;9489;50.948;3.114;2023-09-12T12:32:43;29.13;;;27.13;;
18720;SDS011;9489;50.948;3.114;2023-09-12T12:35:20;35.92;;;33.28;;
18720;SDS011;9489;50.948;3.114;2023-09-12T12:37:50;29.58;;;27.48;;
18720;SDS011;9489;50.948;3.114;2023-09-12T12:40:19;30.25;;;28.27;;
18720;SDS011;9489;50.948;3.114;2023-09-12T12:42:45;23.70;;;21.98;;
18720;SDS011;9489;50.948;3.114;2023-09-12T12:45:21;29.23;;;26.88;;
18720;SDS011;9489;50.948;3.114;2023-09-12T12:47:51;31.48;;;29.30;;
18720;SDS011;9489;50.948;3.114;2023-09-12T12:50:22;29.83;;;27.83;;
18720;SDS011;9489;50.948;3.114;2023-09-12T12:52:48;26.70;;;24.80;;
18720;SDS011;9489;50.948;3.114;2023-09-12T12:55:14;26.83;;;25.02;;
18720;SDS011;9489;50.948;3.114;2023-09-12T12:57:42;25.20;;;23.40;;
18720;SDS011;9489;50.948;3.114;2023-09-12T13:00:12;22.88;;;21.38;;
18720;SDS011;9489;50.948;3.114;2023-09-12T13:02:43;22.67;;;20.98;;
18720;SDS011;9489;50.948;3.114;2023-09-12T13:05:28;23.27;;;21.60;;
18720;SDS011;9489;50.948;3.114;2023-09-12T13:07:55;27.55;;;25.75;;
18720;SDS011;9489;50.948;3.114;2023-09-12T13:10:21;21.90;;;20.33;;
18720;SDS011;9489;50.948;3.114;2023-09-12T13:12:48;24.30;;;22.45;;
18720;SDS011;9489;50.948;3.114;2023-09-12T13:15:14;19.27;;;17.83;;
18720;SDS011;9489;50.948;3.114;2023-09-12T13:17:41;17.70;;;16.50;;
18720;SDS011;9489;50.948;3.114;2023-09-12T13:20:07;19.27;;;17.88;;
18720;SDS011;9489;50.948;3.114;2023-09-12T13:22:34;15.43;;;14.50;;
18720;SDS011;9489;50.948;3.114;2023-09-12T13:25:00;14.40;;;13.50;;
18720;SDS011;9489;50.948;3.114;2023-09-12T13:27:25;19.45;;;18.08;;
18720;SDS011;9489;50.948;3.114;2023-09-12T13:29:51;16.10;;;15.10;;
18720;SDS011;9489;50.948;3.114;2023-09-12T13:32:16;14.45;;;13.40;;
18720;SDS011;9489;50.948;3.114;2023-09-12T13:34:43;12.73;;;11.93;;
18720;SDS011;9489;50.948;3.114;2023-09-12T13:37:12;14.73;;;13.65;;
18720;SDS011;9489;50.948;3.114;2023-09-12T13:39:38;14.27;;;13.30;;
18720;SDS011;9489;50.948;3.114;2023-09-12T13:42:05;25.52;;;23.77;;
18720;SDS011;9489;50.948;3.114;2023-09-12T13:44:33;24.65;;;22.75;;
18720;SDS011;9489;50.948;3.114;2023-09-12T13:46:58;22.98;;;21.48;;
18720;SDS011;9489;50.948;3.114;2023-09-12T13:49:24;28.23;;;26.27;;
18720;SDS011;9489;50.948;3.114;2023-09-12T13:51:50;21.13;;;19.63;;
18720;SDS011;9489;50.948;3.114;2023-09-12T13:54:15;29.35;;;27.52;;
18720;SDS011;9489;50.948;3.114;2023-09-12T13:56:41;23.58;;;22.02;;
18720;SDS011;9489;50.948;3.114;2023-09-12T13:59:07;26.55;;;24.55;;
18720;SDS011;9489;50.948;3.114;2023-09-12T14:01:33;21.35;;;19.85;;
18720;SDS011;9489;50.948;3.114;2023-09-12T14:03:59;25.45;;;23.67;;
18720;SDS011;9489;50.948;3.114;2023-09-12T14:06:24;23.13;;;21.33;;
18720;SDS011;9489;50.948;3.114;2023-09-12T14:08:51;21.33;;;19.98;;
18720;SDS011;9489;50.948;3.114;2023-09-12T14:11:17;23.08;;;21.40;;
18720;SDS011;9489;50.948;3.114;2023-09-12T14:13:43;21.70;;;20.05;;
18720;SDS011;9489;50.948;3.114;2023-09-12T14:16:08;22.63;;;20.90;;
18720;SDS011;9489;50.948;3.114;2023-09-12T14:18:34;24.70;;;23.13;;
18720;SDS011;9489;50.948;3.114;2023-09-12T14:21:00;20.77;;;19.35;;
18720;SDS011;9489;50.948;3.114;2023-09-12T14:23:26;22.17;;;20.67;;
18720;SDS011;9489;50.948;3.114;2023-09-12T14:25:51;23.98;;;22.38;;
18720;SDS011;9489;50.948;3.114;2023-09-12T14:28:17;24.17;;;22.45;;
18720;SDS011;9489;50.948;3.114;2023-09-12T14:30:43;21.38;;;19.67;;
18720;SDS011;9489;50.948;3.114;2023-09-12T14:33:13;26.60;;;24.42;;
18720;SDS011;9489;50.948;3.114;2023-09-12T14:35:39;22.45;;;20.67;;
18720;SDS011;9489;50.948;3.114;2023-09-12T14:38:06;22.55;;;20.92;;
18720;SDS011;9489;50.948;3.114;2023-09-12T14:40:32;25.20;;;23.35;;
18720;SDS011;9489;50.948;3.114;2023-09-12T14:42:59;24.25;;;22.38;;
18720;SDS011;9489;50.948;3.114;2023-09-12T14:45:25;25.95;;;24.00;;
18720;SDS011;9489;50.948;3.114;2023-09-12T14:47:52;24.90;;;23.00;;
18720;SDS011;9489;50.948;3.114;2023-09-12T14:50:20;26.80;;;24.85;;